sensor_id;sensor_type;location;lat;lon;timestamp;pressure;altitude;pressure_sealevel;temperature;humidity
67373;BME280;54257;54.496;18.412;2022-12-29T00:00:20;98932.95;;;5.32;100.00
67373;BME280;54257;54.496;18.412;2022-12-29T00:03:06;98932.95;;;5.32;100.00
67373;BME280;54257;54.496;18.412;2022-12-29T00:05:34;98932.92;;;5.30;100.00
67373;BME280;54257;54.496;18.412;2022-12-29T00:08:01;98930.89;;;5.30;100.00
67373;BME280;54257;54.496;18.412;2022-12-29T00:10:28;98927.80;;;5.29;100.00
67373;BME280;54257;54.496;18.412;2022-12-29T00:12:55;98922.90;;;5.29;100.00
67373;BME280;54257;54.496;18.412;2022-12-29T00:15:41;98919.83;;;5.28;100.00
67373;BME280;54257;54.496;18.412;2022-12-29T00:18:08;98918.47;;;5.28;100.00
67373;BME280;54257;54.496;18.412;2022-12-29T00:20:36;98913.73;;;5.28;100.00
67373;BME280;54257;54.496;18.412;2022-12-29T00:23:23;98908.47;;;5.28;100.00
67373;BME280;54257;54.496;18.412;2022-12-29T00:26:13;98906.27;;;5.27;100.00
67373;BME280;54257;54.496;18.412;2022-12-29T00:29:01;98904.58;;;5.27;100.00
67373;BME280;54257;54.496;18.412;2022-12-29T00:31:47;98905.73;;;5.26;100.00
67373;BME280;54257;54.496;18.412;2022-12-29T00:34:37;98902.86;;;5.26;100.00
67373;BME280;54257;54.496;18.412;2022-12-29T00:37:25;98902.34;;;5.26;100.00
67373;BME280;54257;54.496;18.412;2022-12-29T00:40:12;98899.96;;;5.25;100.00
67373;BME280;54257;54.496;18.412;2022-12-29T00:42:58;98895.05;;;5.25;100.00
67373;BME280;54257;54.496;18.412;2022-12-29T00:45:44;98901.98;;;5.24;100.00
67373;BME280;54257;54.496;18.412;2022-12-29T00:48:11;98899.60;;;5.23;100.00
67373;BME280;54257;54.496;18.412;2022-12-29T00:50:38;98899.78;;;5.24;100.00
67373;BME280;54257;54.496;18.412;2022-12-29T00:53:05;98899.63;;;5.25;100.00
67373;BME280;54257;54.496;18.412;2022-12-29T00:55:36;98893.52;;;5.24;100.00
67373;BME280;54257;54.496;18.412;2022-12-29T00:58:04;98894.23;;;5.26;100.00
67373;BME280;54257;54.496;18.412;2022-12-29T01:00:31;98887.98;;;5.28;100.00
67373;BME280;54257;54.496;18.412;2022-12-29T01:02:58;98881.21;;;5.27;100.00
67373;BME280;54257;54.496;18.412;2022-12-29T01:05:26;98873.95;;;5.28;100.00
67373;BME280;54257;54.496;18.412;2022-12-29T01:07:53;98871.26;;;5.29;100.00
67373;BME280;54257;54.496;18.412;2022-12-29T01:10:22;98867.20;;;5.29;100.00
67373;BME280;54257;54.496;18.412;2022-12-29T01:12:49;98866.02;;;5.29;100.00
67373;BME280;54257;54.496;18.412;2022-12-29T01:15:18;98864.52;;;5.29;100.00
67373;BME280;54257;54.496;18.412;2022-12-29T01:17:45;98864.83;;;5.29;100.00
67373;BME280;54257;54.496;18.412;2022-12-29T01:20:12;98867.38;;;5.29;100.00
67373;BME280;54257;54.496;18.412;2022-12-29T01:22:39;98864.31;;;5.29;100.00
67373;BME280;54257;54.496;18.412;2022-12-29T01:25:07;98860.61;;;5.29;100.00
67373;BME280;54257;54.496;18.412;2022-12-29T01:27:34;98863.48;;;5.29;100.00
67373;BME280;54257;54.496;18.412;2022-12-29T01:30:01;98861.47;;;5.29;100.00
67373;BME280;54257;54.496;18.412;2022-12-29T01:32:28;98862.11;;;5.29;100.00
67373;BME280;54257;54.496;18.412;2022-12-29T01:34:55;98862.98;;;5.29;100.00
67373;BME280;54257;54.496;18.412;2022-12-29T01:37:22;98861.63;;;5.29;100.00
67373;BME280;54257;54.496;18.412;2022-12-29T01:39:49;98858.04;;;5.28;100.00
67373;BME280;54257;54.496;18.412;2022-12-29T01:42:18;98862.95;;;5.28;100.00
67373;BME280;54257;54.496;18.412;2022-12-29T01:47:21;98860.89;;;5.27;100.00
67373;BME280;54257;54.496;18.412;2022-12-29T01:49:53;98859.83;;;5.24;100.00
67373;BME280;54257;54.496;18.412;2022-12-29T01:52:23;98853.41;;;5.24;100.00
67373;BME280;54257;54.496;18.412;2022-12-29T01:54:52;98849.18;;;5.25;100.00
67373;BME280;54257;54.496;18.412;2022-12-29T01:57:26;98848.67;;;5.25;100.00
67373;BME280;54257;54.496;18.412;2022-12-29T01:59:59;98843.94;;;5.25;100.00
67373;BME280;54257;54.496;18.412;2022-12-29T02:02:31;98838.34;;;5.24;100.00
67373;BME280;54257;54.496;18.412;2022-12-29T02:05:52;98832.42;;;5.25;100.00
67373;BME280;54257;54.496;18.412;2022-12-29T02:07:53;98837.17;;;5.26;100.00
67373;BME280;54257;54.496;18.412;2022-12-29T02:10:21;98840.39;;;5.25;100.00
67373;BME280;54257;54.496;18.412;2022-12-29T02:12:49;98839.73;;;5.26;100.00
67373;BME280;54257;54.496;18.412;2022-12-29T02:15:17;98841.73;;;5.26;100.00
67373;BME280;54257;54.496;18.412;2022-12-29T02:18:03;98841.24;;;5.26;100.00
67373;BME280;54257;54.496;18.412;2022-12-29T02:26:38;98832.94;;;5.26;100.00
67373;BME280;54257;54.496;18.412;2022-12-29T02:37:19;98814.98;;;5.26;100.00
67373;BME280;54257;54.496;18.412;2022-12-29T02:39:53;98812.63;;;5.25;100.00
67373;BME280;54257;54.496;18.412;2022-12-29T02:48:37;98815.63;;;5.22;100.00
67373;BME280;54257;54.496;18.412;2022-12-29T02:50:46;98812.89;;;5.21;100.00
67373;BME280;54257;54.496;18.412;2022-12-29T02:53:17;98812.54;;;5.21;100.00
67373;BME280;54257;54.496;18.412;2022-12-29T02:56:06;98812.53;;;5.21;100.00
67373;BME280;54257;54.496;18.412;2022-12-29T02:58:33;98813.86;;;5.20;100.00
67373;BME280;54257;54.496;18.412;2022-12-29T03:01:16;98810.80;;;5.19;100.00
67373;BME280;54257;54.496;18.412;2022-12-29T03:09:24;98798.58;;;5.16;100.00
67373;BME280;54257;54.496;18.412;2022-12-29T03:12:01;98786.40;;;5.17;100.00
67373;BME280;54257;54.496;18.412;2022-12-29T03:15:03;98780.64;;;5.17;100.00
67373;BME280;54257;54.496;18.412;2022-12-29T03:18:01;98778.77;;;5.16;100.00
67373;BME280;54257;54.496;18.412;2022-12-29T03:20:53;98776.38;;;5.14;100.00
67373;BME280;54257;54.496;18.412;2022-12-29T03:23:22;98777.54;;;5.14;100.00
67373;BME280;54257;54.496;18.412;2022-12-29T03:25:52;98783.09;;;5.13;100.00
67373;BME280;54257;54.496;18.412;2022-12-29T03:28:30;98789.48;;;5.11;100.00
67373;BME280;54257;54.496;18.412;2022-12-29T03:31:03;98785.41;;;5.09;100.00
67373;BME280;54257;54.496;18.412;2022-12-29T03:33:31;98786.56;;;5.08;100.00
67373;BME280;54257;54.496;18.412;2022-12-29T03:36:05;98778.74;;;5.06;100.00
67373;BME280;54257;54.496;18.412;2022-12-29T03:39:08;98774.15;;;5.04;100.00
67373;BME280;54257;54.496;18.412;2022-12-29T03:41:40;98770.41;;;5.04;100.00
67373;BME280;54257;54.496;18.412;2022-12-29T03:44:09;98769.38;;;5.03;100.00
67373;BME280;54257;54.496;18.412;2022-12-29T03:46:37;98765.64;;;5.02;100.00
67373;BME280;54257;54.496;18.412;2022-12-29T03:49:04;98763.09;;;5.01;100.00
67373;BME280;54257;54.496;18.412;2022-12-29T03:51:31;98762.23;;;5.00;100.00
67373;BME280;54257;54.496;18.412;2022-12-29T03:53:58;98764.59;;;5.00;100.00
67373;BME280;54257;54.496;18.412;2022-12-29T03:56:28;98761.02;;;5.00;100.00
67373;BME280;54257;54.496;18.412;2022-12-29T03:58:55;98763.20;;;4.98;100.00
67373;BME280;54257;54.496;18.412;2022-12-29T04:01:22;98760.00;;;4.99;100.00
67373;BME280;54257;54.496;18.412;2022-12-29T04:03:49;98756.92;;;4.97;100.00
67373;BME280;54257;54.496;18.412;2022-12-29T04:06:16;98752.20;;;4.98;100.00
67373;BME280;54257;54.496;18.412;2022-12-29T04:08:43;98751.70;;;4.98;100.00
67373;BME280;54257;54.496;18.412;2022-12-29T04:11:10;98746.63;;;4.98;100.00
67373;BME280;54257;54.496;18.412;2022-12-29T04:13:37;98744.09;;;4.98;100.00
67373;BME280;54257;54.496;18.412;2022-12-29T04:16:07;98745.42;;;4.97;100.00
67373;BME280;54257;54.496;18.412;2022-12-29T04:18:35;98748.95;;;4.96;100.00
67373;BME280;54257;54.496;18.412;2022-12-29T04:21:02;98744.36;;;4.95;100.00
67373;BME280;54257;54.496;18.412;2022-12-29T04:23:32;98746.92;;;4.96;100.00
67373;BME280;54257;54.496;18.412;2022-12-29T04:26:01;98748.12;;;4.97;100.00
67373;BME280;54257;54.496;18.412;2022-12-29T04:28:28;98744.05;;;4.96;100.00
67373;BME280;54257;54.496;18.412;2022-12-29T04:30:55;98747.79;;;4.97;100.00
67373;BME280;54257;54.496;18.412;2022-12-29T04:33:22;98743.90;;;4.98;100.00
67373;BME280;54257;54.496;18.412;2022-12-29T04:35:50;98742.73;;;4.97;100.00
67373;BME280;54257;54.496;18.412;2022-12-29T04:38:20;98737.16;;;4.99;100.00
67373;BME280;54257;54.496;18.412;2022-12-29T04:40:47;98740.70;;;4.98;100.00
67373;BME280;54257;54.496;18.412;2022-12-29T04:43:14;98737.50;;;4.99;100.00
67373;BME280;54257;54.496;18.412;2022-12-29T04:45:46;98735.80;;;4.99;100.00
67373;BME280;54257;54.496;18.412;2022-12-29T04:48:13;98731.07;;;4.99;100.00
67373;BME280;54257;54.496;18.412;2022-12-29T04:50:41;98725.83;;;4.99;100.00
67373;BME280;54257;54.496;18.412;2022-12-29T04:53:08;98719.23;;;5.00;100.00
67373;BME280;54257;54.496;18.412;2022-12-29T04:55:35;98714.16;;;5.00;100.00
67373;BME280;54257;54.496;18.412;2022-12-29T04:58:02;98714.84;;;5.00;100.00
67373;BME280;54257;54.496;18.412;2022-12-29T05:00:29;98712.80;;;4.99;100.00
67373;BME280;54257;54.496;18.412;2022-12-29T05:02:56;98712.30;;;5.00;100.00
67373;BME280;54257;54.496;18.412;2022-12-29T05:05:23;98715.52;;;4.99;100.00
67373;BME280;54257;54.496;18.412;2022-12-29T05:07:50;98714.66;;;4.99;100.00
67373;BME280;54257;54.496;18.412;2022-12-29T05:10:17;98716.70;;;5.00;100.00
67373;BME280;54257;54.496;18.412;2022-12-29T05:12:45;98716.38;;;5.01;100.00
67373;BME280;54257;54.496;18.412;2022-12-29T05:15:12;98716.20;;;5.01;100.00
67373;BME280;54257;54.496;18.412;2022-12-29T05:17:39;98711.77;;;4.98;100.00
67373;BME280;54257;54.496;18.412;2022-12-29T05:20:07;98708.44;;;5.01;100.00
67373;BME280;54257;54.496;18.412;2022-12-29T05:22:34;98698.11;;;5.01;100.00
67373;BME280;54257;54.496;18.412;2022-12-29T05:25:01;98694.73;;;5.01;100.00
67373;BME280;54257;54.496;18.412;2022-12-29T05:27:28;98692.02;;;5.01;100.00
67373;BME280;54257;54.496;18.412;2022-12-29T05:29:55;98691.00;;;5.01;100.00
67373;BME280;54257;54.496;18.412;2022-12-29T05:32:22;98685.92;;;5.01;100.00
67373;BME280;54257;54.496;18.412;2022-12-29T05:34:49;98682.88;;;5.01;100.00
67373;BME280;54257;54.496;18.412;2022-12-29T05:37:16;98684.73;;;5.00;100.00
67373;BME280;54257;54.496;18.412;2022-12-29T05:39:43;98687.08;;;4.99;100.00
67373;BME280;54257;54.496;18.412;2022-12-29T05:42:10;98682.52;;;4.99;100.00
67373;BME280;54257;54.496;18.412;2022-12-29T05:44:37;98683.70;;;5.00;100.00
67373;BME280;54257;54.496;18.412;2022-12-29T05:47:04;98682.20;;;5.00;100.00
67373;BME280;54257;54.496;18.412;2022-12-29T05:49:31;98676.45;;;5.01;100.00
67373;BME280;54257;54.496;18.412;2022-12-29T05:51:58;98678.98;;;5.00;100.00
67373;BME280;54257;54.496;18.412;2022-12-29T05:54:25;98681.02;;;5.01;100.00
67373;BME280;54257;54.496;18.412;2022-12-29T05:56:52;98675.27;;;5.01;100.00
67373;BME280;54257;54.496;18.412;2022-12-29T05:59:19;98669.52;;;5.02;100.00
67373;BME280;54257;54.496;18.412;2022-12-29T06:01:46;98667.16;;;5.02;100.00
67373;BME280;54257;54.496;18.412;2022-12-29T06:04:13;98665.31;;;5.03;100.00
67373;BME280;54257;54.496;18.412;2022-12-29T06:06:40;98654.82;;;5.03;100.00
67373;BME280;54257;54.496;18.412;2022-12-29T06:09:09;98651.95;;;5.03;100.00
67373;BME280;54257;54.496;18.412;2022-12-29T06:11:37;98651.77;;;5.03;100.00
67373;BME280;54257;54.496;18.412;2022-12-29T06:14:04;98648.75;;;5.04;100.00
67373;BME280;54257;54.496;18.412;2022-12-29T06:16:31;98643.38;;;5.05;100.00
67373;BME280;54257;54.496;18.412;2022-12-29T06:18:59;98640.69;;;5.07;100.00
67373;BME280;54257;54.496;18.412;2022-12-29T06:21:26;98634.44;;;5.08;100.00
67373;BME280;54257;54.496;18.412;2022-12-29T06:23:53;98632.41;;;5.09;100.00
67373;BME280;54257;54.496;18.412;2022-12-29T06:26:20;98634.30;;;5.10;100.00
67373;BME280;54257;54.496;18.412;2022-12-29T06:28:47;98637.85;;;5.10;100.00
67373;BME280;54257;54.496;18.412;2022-12-29T06:31:14;98635.48;;;5.10;100.00
67373;BME280;54257;54.496;18.412;2022-12-29T06:33:41;98634.80;;;5.10;100.00
67373;BME280;54257;54.496;18.412;2022-12-29T06:36:08;98630.75;;;5.11;100.00
67373;BME280;54257;54.496;18.412;2022-12-29T06:38:35;98630.23;;;5.10;100.00
67373;BME280;54257;54.496;18.412;2022-12-29T06:41:12;98628.71;;;5.11;100.00
67373;BME280;54257;54.496;18.412;2022-12-29T06:43:39;98636.16;;;5.11;100.00
67373;BME280;54257;54.496;18.412;2022-12-29T06:46:06;98636.16;;;5.11;100.00
67373;BME280;54257;54.496;18.412;2022-12-29T06:48:33;98638.89;;;5.11;100.00
67373;BME280;54257;54.496;18.412;2022-12-29T06:51:00;98634.65;;;5.12;100.00
67373;BME280;54257;54.496;18.412;2022-12-29T06:53:27;98627.88;;;5.11;100.00
67373;BME280;54257;54.496;18.412;2022-12-29T06:55:54;98632.63;;;5.11;100.00
67373;BME280;54257;54.496;18.412;2022-12-29T06:58:21;98637.20;;;5.12;100.00
67373;BME280;54257;54.496;18.412;2022-12-29T07:00:48;98636.69;;;5.12;100.00
67373;BME280;54257;54.496;18.412;2022-12-29T07:03:15;98628.89;;;5.11;100.00
67373;BME280;54257;54.496;18.412;2022-12-29T07:05:42;98628.22;;;5.11;100.00
67373;BME280;54257;54.496;18.412;2022-12-29T07:08:09;98632.45;;;5.12;100.00
67373;BME280;54257;54.496;18.412;2022-12-29T07:10:36;98630.09;;;5.12;100.00
67373;BME280;54257;54.496;18.412;2022-12-29T07:13:04;98628.93;;;5.13;100.00
67373;BME280;54257;54.496;18.412;2022-12-29T07:15:31;98634.33;;;5.12;100.00
67373;BME280;54257;54.496;18.412;2022-12-29T07:17:58;98642.15;;;5.14;100.00
67373;BME280;54257;54.496;18.412;2022-12-29T07:20:25;98648.09;;;5.14;100.00
67373;BME280;54257;54.496;18.412;2022-12-29T07:22:52;98648.09;;;5.15;100.00
67373;BME280;54257;54.496;18.412;2022-12-29T07:25:19;98652.52;;;5.16;100.00
67373;BME280;54257;54.496;18.412;2022-12-29T07:27:46;98647.61;;;5.17;100.00
67373;BME280;54257;54.496;18.412;2022-12-29T07:30:14;98645.59;;;5.17;100.00
67373;BME280;54257;54.496;18.412;2022-12-29T07:32:41;98643.56;;;5.18;100.00
67373;BME280;54257;54.496;18.412;2022-12-29T07:35:08;98649.16;;;5.19;100.00
67373;BME280;54257;54.496;18.412;2022-12-29T07:37:35;98649.00;;;5.20;100.00
67373;BME280;54257;54.496;18.412;2022-12-29T07:40:03;98642.94;;;5.21;100.00
67373;BME280;54257;54.496;18.412;2022-12-29T07:42:31;98634.84;;;5.22;100.00
67373;BME280;54257;54.496;18.412;2022-12-29T07:44:58;98628.27;;;5.23;100.00
67373;BME280;54257;54.496;18.412;2022-12-29T07:47:26;98635.21;;;5.24;100.00
67373;BME280;54257;54.496;18.412;2022-12-29T07:49:53;98639.29;;;5.25;100.00
67373;BME280;54257;54.496;18.412;2022-12-29T07:52:20;98637.79;;;5.27;100.00
67373;BME280;54257;54.496;18.412;2022-12-29T07:54:47;98634.90;;;5.26;100.00
67373;BME280;54257;54.496;18.412;2022-12-29T07:57:14;98637.63;;;5.27;100.00
67373;BME280;54257;54.496;18.412;2022-12-29T07:59:41;98642.02;;;5.28;100.00
67373;BME280;54257;54.496;18.412;2022-12-29T08:02:10;98644.77;;;5.29;100.00
67373;BME280;54257;54.496;18.412;2022-12-29T08:04:38;98645.94;;;5.29;100.00
67373;BME280;54257;54.496;18.412;2022-12-29T08:07:05;98651.73;;;5.30;100.00
67373;BME280;54257;54.496;18.412;2022-12-29T08:09:32;98653.77;;;5.30;100.00
67373;BME280;54257;54.496;18.412;2022-12-29T08:12:00;98650.08;;;5.32;100.00
67373;BME280;54257;54.496;18.412;2022-12-29T08:14:26;98656.18;;;5.34;100.00
67373;BME280;54257;54.496;18.412;2022-12-29T08:16:53;98656.20;;;5.35;100.00
67373;BME280;54257;54.496;18.412;2022-12-29T08:19:20;98647.73;;;5.36;100.00
67373;BME280;54257;54.496;18.412;2022-12-29T08:21:47;98656.05;;;5.37;100.00
67373;BME280;54257;54.496;18.412;2022-12-29T08:24:15;98659.81;;;5.38;100.00
67373;BME280;54257;54.496;18.412;2022-12-29T08:26:42;98653.05;;;5.38;100.00
67373;BME280;54257;54.496;18.412;2022-12-29T08:29:09;98646.63;;;5.39;100.00
67373;BME280;54257;54.496;18.412;2022-12-29T08:31:36;98654.59;;;5.40;100.00
67373;BME280;54257;54.496;18.412;2022-12-29T08:34:03;98650.20;;;5.41;100.00
67373;BME280;54257;54.496;18.412;2022-12-29T08:36:30;98652.27;;;5.43;100.00
67373;BME280;54257;54.496;18.412;2022-12-29T08:38:57;98650.94;;;5.45;100.00
67373;BME280;54257;54.496;18.412;2022-12-29T08:41:24;98647.42;;;5.46;100.00
67373;BME280;54257;54.496;18.412;2022-12-29T08:43:52;98645.75;;;5.48;100.00
67373;BME280;54257;54.496;18.412;2022-12-29T08:46:19;98638.65;;;5.49;100.00
67373;BME280;54257;54.496;18.412;2022-12-29T08:48:46;98639.85;;;5.50;100.00
67373;BME280;54257;54.496;18.412;2022-12-29T08:51:13;98646.31;;;5.52;100.00
67373;BME280;54257;54.496;18.412;2022-12-29T08:53:40;98648.55;;;5.54;100.00
67373;BME280;54257;54.496;18.412;2022-12-29T08:56:09;98635.02;;;5.55;100.00
67373;BME280;54257;54.496;18.412;2022-12-29T08:58:36;98627.89;;;5.55;100.00
67373;BME280;54257;54.496;18.412;2022-12-29T09:01:04;98624.67;;;5.54;100.00
67373;BME280;54257;54.496;18.412;2022-12-29T09:03:31;98627.10;;;5.58;100.00
67373;BME280;54257;54.496;18.412;2022-12-29T09:05:58;98621.52;;;5.60;100.00
67373;BME280;54257;54.496;18.412;2022-12-29T09:08:26;98625.29;;;5.62;100.00
67373;BME280;54257;54.496;18.412;2022-12-29T09:10:53;98625.16;;;5.63;100.00
67373;BME280;54257;54.496;18.412;2022-12-29T09:13:20;98627.70;;;5.65;100.00
67373;BME280;54257;54.496;18.412;2022-12-29T09:15:47;98632.48;;;5.67;100.00
67373;BME280;54257;54.496;18.412;2022-12-29T09:18:14;98631.32;;;5.69;100.00
67373;BME280;54257;54.496;18.412;2022-12-29T09:20:42;98628.98;;;5.71;100.00
67373;BME280;54257;54.496;18.412;2022-12-29T09:23:09;98620.36;;;5.72;100.00
67373;BME280;54257;54.496;18.412;2022-12-29T09:25:36;98613.44;;;5.74;100.00
67373;BME280;54257;54.496;18.412;2022-12-29T09:28:03;98607.18;;;5.75;100.00
67373;BME280;54257;54.496;18.412;2022-12-29T09:30:34;98600.77;;;5.78;100.00
67373;BME280;54257;54.496;18.412;2022-12-29T09:33:01;98598.94;;;5.79;100.00
67373;BME280;54257;54.496;18.412;2022-12-29T09:35:28;98602.18;;;5.81;100.00
67373;BME280;54257;54.496;18.412;2022-12-29T09:37:55;98601.69;;;5.83;100.00
67373;BME280;54257;54.496;18.412;2022-12-29T09:40:33;98602.05;;;5.85;100.00
67373;BME280;54257;54.496;18.412;2022-12-29T09:48:50;98590.14;;;5.91;100.00
67373;BME280;54257;54.496;18.412;2022-12-29T09:51:22;98590.37;;;5.95;100.00
67373;BME280;54257;54.496;18.412;2022-12-29T09:56:41;98586.05;;;6.03;100.00
67373;BME280;54257;54.496;18.412;2022-12-29T09:59:16;98589.98;;;6.06;100.00
67373;BME280;54257;54.496;18.412;2022-12-29T10:01:51;98594.45;;;6.10;100.00
67373;BME280;54257;54.496;18.412;2022-12-29T10:04:26;98585.00;;;6.14;100.00
67373;BME280;54257;54.496;18.412;2022-12-29T10:06:58;98583.85;;;6.18;100.00
67373;BME280;54257;54.496;18.412;2022-12-29T10:09:33;98586.61;;;6.21;100.00
67373;BME280;54257;54.496;18.412;2022-12-29T10:15:33;98591.45;;;6.29;100.00
67373;BME280;54257;54.496;18.412;2022-12-29T10:24:04;98580.70;;;6.40;100.00
67373;BME280;54257;54.496;18.412;2022-12-29T10:26:40;98572.97;;;6.45;100.00
67373;BME280;54257;54.496;18.412;2022-12-29T10:29:16;98565.88;;;6.49;100.00
67373;BME280;54257;54.496;18.412;2022-12-29T10:31:58;98554.53;;;6.50;100.00
67373;BME280;54257;54.496;18.412;2022-12-29T10:34:41;98555.10;;;6.57;100.00
67373;BME280;54257;54.496;18.412;2022-12-29T10:40:03;98552.27;;;6.60;100.00
67373;BME280;54257;54.496;18.412;2022-12-29T10:42:46;98557.87;;;6.61;100.00
67373;BME280;54257;54.496;18.412;2022-12-29T10:45:16;98554.48;;;6.62;100.00
67373;BME280;54257;54.496;18.412;2022-12-29T10:48:00;98554.66;;;6.63;100.00
67373;BME280;54257;54.496;18.412;2022-12-29T10:50:29;98554.66;;;6.65;100.00
67373;BME280;54257;54.496;18.412;2022-12-29T10:53:02;98549.23;;;6.67;100.00
67373;BME280;54257;54.496;18.412;2022-12-29T10:55:38;98544.16;;;6.67;100.00
67373;BME280;54257;54.496;18.412;2022-12-29T10:58:12;98542.80;;;6.67;100.00
67373;BME280;54257;54.496;18.412;2022-12-29T11:00:41;98544.54;;;6.69;100.00
67373;BME280;54257;54.496;18.412;2022-12-29T11:05:57;98540.81;;;6.70;100.00
67373;BME280;54257;54.496;18.412;2022-12-29T11:08:36;98540.14;;;6.71;100.00
67373;BME280;54257;54.496;18.412;2022-12-29T11:11:08;98546.42;;;6.74;100.00
67373;BME280;54257;54.496;18.412;2022-12-29T11:13:50;98549.16;;;6.75;100.00
67373;BME280;54257;54.496;18.412;2022-12-29T11:16:34;98550.04;;;6.77;100.00
67373;BME280;54257;54.496;18.412;2022-12-29T11:19:02;98547.33;;;6.78;100.00
67373;BME280;54257;54.496;18.412;2022-12-29T11:21:37;98543.95;;;6.81;100.00
67373;BME280;54257;54.496;18.412;2022-12-29T11:26:51;98535.30;;;6.83;100.00
67373;BME280;54257;54.496;18.412;2022-12-29T11:29:23;98521.39;;;6.84;100.00
67373;BME280;54257;54.496;18.412;2022-12-29T11:31:57;98514.29;;;6.84;100.00
67373;BME280;54257;54.496;18.412;2022-12-29T11:34:30;98516.49;;;6.84;100.00
67373;BME280;54257;54.496;18.412;2022-12-29T11:37:03;98524.99;;;6.86;100.00
67373;BME280;54257;54.496;18.412;2022-12-29T11:40:06;98530.42;;;6.87;100.00
67373;BME280;54257;54.496;18.412;2022-12-29T11:42:39;98526.70;;;6.88;100.00
67373;BME280;54257;54.496;18.412;2022-12-29T11:45:20;98526.52;;;6.88;100.00
67373;BME280;54257;54.496;18.412;2022-12-29T11:47:50;98520.77;;;6.89;100.00
67373;BME280;54257;54.496;18.412;2022-12-29T11:50:31;98516.18;;;6.89;100.00
67373;BME280;54257;54.496;18.412;2022-12-29T11:53:01;98514.16;;;6.91;100.00
67373;BME280;54257;54.496;18.412;2022-12-29T11:55:30;98506.20;;;6.93;100.00
67373;BME280;54257;54.496;18.412;2022-12-29T11:58:00;98510.64;;;6.95;100.00
67373;BME280;54257;54.496;18.412;2022-12-29T12:00:31;98510.46;;;6.97;100.00
67373;BME280;54257;54.496;18.412;2022-12-29T12:03:01;98510.98;;;6.98;100.00
67373;BME280;54257;54.496;18.412;2022-12-29T12:08:18;98517.63;;;7.00;100.00
67373;BME280;54257;54.496;18.412;2022-12-29T12:13:49;98517.48;;;7.01;100.00
67373;BME280;54257;54.496;18.412;2022-12-29T12:16:21;98520.88;;;7.01;100.00
67373;BME280;54257;54.496;18.412;2022-12-29T12:19:04;98519.69;;;7.02;100.00
67373;BME280;54257;54.496;18.412;2022-12-29T12:21:41;98518.67;;;7.04;100.00
67373;BME280;54257;54.496;18.412;2022-12-29T12:29:50;98526.85;;;7.08;100.00
67373;BME280;54257;54.496;18.412;2022-12-29T12:34:54;98519.58;;;7.13;100.00
67373;BME280;54257;54.496;18.412;2022-12-29T12:37:40;98509.40;;;7.13;100.00
67373;BME280;54257;54.496;18.412;2022-12-29T12:43:36;98507.41;;;7.21;100.00
67373;BME280;54257;54.496;18.412;2022-12-29T12:51:57;98501.69;;;7.30;100.00
67373;BME280;54257;54.496;18.412;2022-12-29T13:05:51;98511.41;;;7.34;100.00
67373;BME280;54257;54.496;18.412;2022-12-29T13:14:08;98529.75;;;7.35;100.00
67373;BME280;54257;54.496;18.412;2022-12-29T13:19:34;98531.11;;;7.37;100.00
67373;BME280;54257;54.496;18.412;2022-12-29T13:24:55;98520.42;;;7.41;100.00
67373;BME280;54257;54.496;18.412;2022-12-29T13:27:36;98523.34;;;7.43;100.00
67373;BME280;54257;54.496;18.412;2022-12-29T13:30:12;98526.56;;;7.42;100.00
67373;BME280;54257;54.496;18.412;2022-12-29T13:36:00;98534.71;;;7.41;100.00
67373;BME280;54257;54.496;18.412;2022-12-29T13:38:42;98535.02;;;7.40;100.00
67373;BME280;54257;54.496;18.412;2022-12-29T13:41:16;98539.77;;;7.39;100.00
67373;BME280;54257;54.496;18.412;2022-12-29T13:43:46;98540.13;;;7.38;100.00
67373;BME280;54257;54.496;18.412;2022-12-29T13:46:28;98540.63;;;7.38;100.00
67373;BME280;54257;54.496;18.412;2022-12-29T13:49:34;98540.45;;;7.37;100.00
67373;BME280;54257;54.496;18.412;2022-12-29T13:51:59;98543.85;;;7.37;100.00
67373;BME280;54257;54.496;18.412;2022-12-29T13:57:48;98538.59;;;7.35;100.00
67373;BME280;54257;54.496;18.412;2022-12-29T14:00:20;98536.70;;;7.34;100.00
67373;BME280;54257;54.496;18.412;2022-12-29T14:05:39;98546.56;;;7.34;100.00
67373;BME280;54257;54.496;18.412;2022-12-29T14:08:15;98550.45;;;7.33;100.00
67373;BME280;54257;54.496;18.412;2022-12-29T14:10:47;98546.19;;;7.32;100.00
67373;BME280;54257;54.496;18.412;2022-12-29T14:13:25;98542.79;;;7.32;100.00
67373;BME280;54257;54.496;18.412;2022-12-29T14:16:02;98539.75;;;7.33;100.00
67373;BME280;54257;54.496;18.412;2022-12-29T14:18:34;98533.30;;;7.33;100.00
67373;BME280;54257;54.496;18.412;2022-12-29T14:21:09;98532.30;;;7.34;100.00
67373;BME280;54257;54.496;18.412;2022-12-29T14:23:43;98535.52;;;7.35;100.00
67373;BME280;54257;54.496;18.412;2022-12-29T14:26:17;98534.16;;;7.34;100.00
67373;BME280;54257;54.496;18.412;2022-12-29T14:31:56;98526.30;;;7.29;100.00
67373;BME280;54257;54.496;18.412;2022-12-29T14:34:34;98531.61;;;7.33;100.00
67373;BME280;54257;54.496;18.412;2022-12-29T14:37:31;98539.61;;;7.37;100.00
67373;BME280;54257;54.496;18.412;2022-12-29T14:40:04;98540.80;;;7.39;100.00
67373;BME280;54257;54.496;18.412;2022-12-29T14:42:32;98535.20;;;7.39;100.00
67373;BME280;54257;54.496;18.412;2022-12-29T14:47:51;98530.10;;;7.41;100.00
67373;BME280;54257;54.496;18.412;2022-12-29T14:50:24;98525.68;;;7.41;100.00
67373;BME280;54257;54.496;18.412;2022-12-29T14:53:01;98528.76;;;7.41;100.00
67373;BME280;54257;54.496;18.412;2022-12-29T14:58:29;98515.49;;;7.39;100.00
67373;BME280;54257;54.496;18.412;2022-12-29T15:01:02;98525.36;;;7.40;100.00
67373;BME280;54257;54.496;18.412;2022-12-29T15:05:59;98532.65;;;7.40;100.00
67373;BME280;54257;54.496;18.412;2022-12-29T15:11:42;98534.85;;;7.39;100.00
67373;BME280;54257;54.496;18.412;2022-12-29T15:14:32;98538.59;;;7.37;100.00